createdAt,value
2018-10-18T00:00:52.651Z,0.00
2018-10-18T00:01:52.670Z,0.00
2018-10-18T00:02:52.657Z,0.00
2018-10-18T00:03:52.611Z,0.00
2018-10-18T00:04:52.626Z,0.00
2018-10-18T00:05:52.602Z,0.00
2018-10-18T00:06:52.579Z,0.00
2018-10-18T00:07:52.597Z,0.00
2018-10-18T00:08:52.557Z,0.00
2018-10-18T00:09:52.546Z,0.00
2018-10-18T00:10:52.557Z,0.00
2018-10-18T00:11:52.541Z,0.00
2018-10-18T00:12:52.522Z,0.00
2018-10-18T00:13:52.555Z,0.00
2018-10-18T00:14:52.503Z,0.00
2018-10-18T00:15:52.482Z,0.00
2018-10-18T00:16:52.489Z,0.00
2018-10-18T00:17:52.473Z,0.00
2018-10-18T00:18:52.445Z,0.00
2018-10-18T00:19:52.451Z,0.00
2018-10-18T00:20:52.434Z,0.00
2018-10-18T00:21:52.418Z,0.00
2018-10-18T00:22:52.423Z,0.00
2018-10-18T00:23:52.400Z,0.00
2018-10-18T00:24:52.383Z,0.00
2018-10-18T00:25:52.452Z,0.00
2018-10-18T00:26:52.358Z,0.00
2018-10-18T00:27:52.376Z,0.00
2018-10-18T00:28:52.339Z,0.00
2018-10-18T00:29:52.326Z,0.00
2018-10-18T00:30:52.313Z,0.00
2018-10-18T00:31:52.365Z,0.00
2018-10-18T00:32:52.291Z,0.00
2018-10-18T00:33:52.299Z,0.00
2018-10-18T00:34:52.274Z,0.00
2018-10-18T00:35:52.261Z,0.00
2018-10-18T00:36:52.246Z,0.00
2018-10-18T00:37:52.279Z,0.00
2018-10-18T00:38:52.237Z,0.00
2018-10-18T00:39:52.235Z,0.00
2018-10-18T00:40:52.205Z,0.00
2018-10-18T00:41:52.224Z,0.00
2018-10-18T00:42:52.184Z,0.00
2018-10-18T00:43:52.176Z,0.00
2018-10-18T00:44:52.196Z,0.00
2018-10-18T00:45:52.165Z,0.00
2018-10-18T00:46:52.136Z,0.00
2018-10-18T00:47:52.165Z,0.00
2018-10-18T00:48:52.114Z,0.00
2018-10-18T00:49:52.118Z,0.00
2018-10-18T00:50:52.107Z,0.00
2018-10-18T00:51:52.098Z,0.00
2018-10-18T00:52:52.084Z,0.00
2018-10-18T00:53:52.067Z,0.00
2018-10-18T00:54:52.048Z,0.00
2018-10-18T00:55:52.080Z,0.00
2018-10-18T00:56:52.060Z,0.00
2018-10-18T00:57:52.034Z,0.00
2018-10-18T00:58:52.002Z,0.00
2018-10-18T00:59:52.051Z,0.00
2018-10-18T01:00:51.980Z,0.00
2018-10-18T01:01:52.016Z,0.00
2018-10-18T01:02:51.964Z,0.00
2018-10-18T01:03:51.952Z,0.00
2018-10-18T01:04:51.978Z,0.00
2018-10-18T01:05:51.968Z,0.00
2018-10-18T01:06:51.918Z,0.00
2018-10-18T01:07:51.910Z,0.00
2018-10-18T01:08:51.895Z,0.00
2018-10-18T01:09:51.885Z,0.00
2018-10-18T01:10:51.877Z,0.00
2018-10-18T01:11:51.911Z,0.00
2018-10-18T01:12:51.846Z,0.00
2018-10-18T01:13:51.876Z,0.00
2018-10-18T01:14:51.828Z,0.00
2018-10-18T01:15:51.816Z,0.00
2018-10-18T01:16:51.840Z,0.00
2018-10-18T01:17:51.797Z,0.00
2018-10-18T01:18:51.825Z,0.00
2018-10-18T01:19:51.782Z,0.00
2018-10-18T01:20:51.760Z,0.00
2018-10-18T01:21:51.753Z,0.00
2018-10-18T01:22:51.749Z,0.00
2018-10-18T01:23:51.752Z,0.00
2018-10-18T01:24:51.741Z,0.00
2018-10-18T01:25:51.743Z,0.00
2018-10-18T01:26:51.694Z,0.00
2018-10-18T01:27:51.683Z,0.00
2018-10-18T01:28:51.670Z,0.00
2018-10-18T01:29:51.665Z,0.00
2018-10-18T01:30:51.671Z,0.00
2018-10-18T01:31:51.655Z,0.00
2018-10-18T01:32:51.641Z,0.00
2018-10-18T01:33:51.622Z,0.00
2018-10-18T01:34:51.609Z,0.00
2018-10-18T01:35:51.606Z,0.00
2018-10-18T01:36:51.601Z,0.00
2018-10-18T01:37:51.578Z,0.00
2018-10-18T01:38:51.559Z,0.00
2018-10-18T01:39:51.551Z,0.00
2018-10-18T01:40:51.544Z,0.00
2018-10-18T01:41:51.530Z,0.00
2018-10-18T01:42:51.534Z,0.00
2018-10-18T01:43:51.507Z,0.00
2018-10-18T01:44:51.497Z,0.00
2018-10-18T01:45:51.481Z,0.00
2018-10-18T01:46:51.494Z,0.00
2018-10-18T01:47:51.465Z,0.00
2018-10-18T01:48:51.479Z,0.00
2018-10-18T01:49:51.441Z,0.00
2018-10-18T01:50:51.425Z,0.00
2018-10-18T01:51:51.416Z,0.00
2018-10-18T01:52:51.403Z,0.00
2018-10-18T01:53:51.432Z,0.00
2018-10-18T01:54:51.407Z,0.00
2018-10-18T01:55:51.429Z,0.00
2018-10-18T01:56:51.360Z,0.00
2018-10-18T01:57:51.350Z,0.00
2018-10-18T01:58:51.339Z,0.00
2018-10-18T01:59:51.346Z,0.00
2018-10-18T02:00:51.336Z,0.00
2018-10-18T02:01:51.309Z,0.00
2018-10-18T02:02:51.292Z,0.00
2018-10-18T02:03:51.285Z,0.00
2018-10-18T02:04:51.269Z,0.00
2018-10-18T02:05:51.307Z,0.00
2018-10-18T02:06:51.268Z,0.00
2018-10-18T02:07:51.265Z,0.00
2018-10-18T02:08:51.228Z,0.00
2018-10-18T02:09:51.213Z,0.00
2018-10-18T02:10:51.203Z,0.00
2018-10-18T02:11:51.228Z,0.00
2018-10-18T02:12:51.206Z,0.00
2018-10-18T02:13:51.173Z,0.00
2018-10-18T02:14:51.158Z,0.00
2018-10-18T02:15:51.153Z,0.00
2018-10-18T02:16:51.141Z,0.00
2018-10-18T02:17:51.163Z,0.00
2018-10-18T02:18:51.144Z,0.00
2018-10-18T02:19:51.109Z,0.00
2018-10-18T02:20:51.094Z,0.00
2018-10-18T02:21:51.083Z,0.00
2018-10-18T02:22:51.070Z,0.00
2018-10-18T02:23:51.070Z,0.00
2018-10-18T02:24:51.073Z,0.00
2018-10-18T02:25:51.073Z,0.00
2018-10-18T02:26:51.033Z,0.00
2018-10-18T02:27:51.017Z,0.00
2018-10-18T02:28:51.006Z,0.00
2018-10-18T02:29:50.994Z,0.00
2018-10-18T02:30:51.008Z,0.00
2018-10-18T02:31:50.975Z,0.00
2018-10-18T02:32:50.968Z,0.00
2018-10-18T02:33:50.950Z,0.00
2018-10-18T02:34:50.937Z,0.00
2018-10-18T02:35:50.928Z,0.00
2018-10-18T02:36:50.956Z,0.00
2018-10-18T02:37:50.904Z,0.00
2018-10-18T02:38:50.897Z,0.00
2018-10-18T02:39:50.890Z,0.00
2018-10-18T02:40:50.877Z,0.00
2018-10-18T02:41:50.860Z,0.00
2018-10-18T02:42:50.875Z,0.00
2018-10-18T02:43:50.839Z,0.00
2018-10-18T02:44:50.826Z,0.00
2018-10-18T02:45:50.822Z,0.00
2018-10-18T02:46:50.804Z,0.00
2018-10-18T02:47:50.795Z,0.00
2018-10-18T02:48:50.840Z,0.00
2018-10-18T02:49:50.777Z,0.00
2018-10-18T02:50:50.762Z,0.00
2018-10-18T02:51:50.748Z,0.00
2018-10-18T02:52:50.737Z,0.00
2018-10-18T02:53:50.730Z,0.00
2018-10-18T02:54:50.737Z,0.00
2018-10-18T02:55:50.718Z,0.00
2018-10-18T02:56:50.693Z,0.00
2018-10-18T02:57:50.682Z,0.00
2018-10-18T02:58:50.674Z,0.00
2018-10-18T02:59:50.666Z,0.00
2018-10-18T03:00:50.690Z,0.00
2018-10-18T03:01:50.646Z,0.00
2018-10-18T03:02:50.629Z,0.00
2018-10-18T03:03:50.623Z,0.00
2018-10-18T03:04:50.605Z,0.00
2018-10-18T03:05:50.596Z,0.00
2018-10-18T03:06:50.611Z,0.00
2018-10-18T03:07:50.576Z,0.00
2018-10-18T03:08:50.597Z,0.00
2018-10-18T03:09:50.552Z,0.00
2018-10-18T03:10:50.543Z,0.00
2018-10-18T03:11:50.527Z,0.00
2018-10-18T03:12:50.521Z,0.00
2018-10-18T03:13:50.531Z,0.00
2018-10-18T03:14:50.506Z,0.00
2018-10-18T03:15:50.522Z,0.00
2018-10-18T03:16:50.470Z,0.00
2018-10-18T03:17:50.459Z,0.00
2018-10-18T03:18:50.450Z,0.00
2018-10-18T03:19:50.451Z,0.00
2018-10-18T03:20:50.435Z,0.00
2018-10-18T03:21:50.441Z,0.00
2018-10-18T03:22:50.411Z,0.00
2018-10-18T03:23:50.393Z,0.00
2018-10-18T03:24:50.387Z,0.00
2018-10-18T03:25:50.382Z,0.00
2018-10-18T03:26:50.366Z,0.00
2018-10-18T03:27:50.402Z,0.00
2018-10-18T03:28:50.343Z,0.00
2018-10-18T03:29:50.329Z,0.00
2018-10-18T03:30:50.321Z,0.00
2018-10-18T03:31:50.311Z,0.00
2018-10-18T03:32:50.330Z,0.00
2018-10-18T03:33:50.323Z,0.00
2018-10-18T03:34:50.279Z,0.00
2018-10-18T03:35:50.262Z,0.00
2018-10-18T03:36:50.251Z,0.00
2018-10-18T03:37:50.246Z,0.00
2018-10-18T03:38:50.230Z,0.00
2018-10-18T03:39:50.245Z,0.00
2018-10-18T03:40:50.221Z,0.00
2018-10-18T03:41:50.206Z,0.00
2018-10-18T03:42:50.187Z,0.00
2018-10-18T03:43:50.176Z,0.00
2018-10-18T03:44:50.165Z,0.00
2018-10-18T03:45:50.188Z,0.00
2018-10-18T03:46:50.147Z,0.00
2018-10-18T03:47:50.164Z,0.00
2018-10-18T03:48:50.117Z,0.00
2018-10-18T03:49:50.109Z,0.00
2018-10-18T03:50:50.097Z,0.00
2018-10-18T03:51:50.108Z,0.00
2018-10-18T03:52:50.071Z,0.00
2018-10-18T03:53:50.076Z,0.00
2018-10-18T03:54:50.053Z,0.00
2018-10-18T03:55:50.044Z,0.00
2018-10-18T03:56:50.030Z,0.00
2018-10-18T03:57:50.045Z,0.00
2018-10-18T03:58:50.006Z,0.00
2018-10-18T03:59:50.083Z,0.00
2018-10-18T04:00:49.986Z,0.00
2018-10-18T04:01:49.974Z,0.00
2018-10-18T04:02:49.959Z,0.00
2018-10-18T04:03:49.966Z,0.00
2018-10-18T04:04:49.942Z,0.00
2018-10-18T04:05:49.936Z,0.00
2018-10-18T04:06:49.919Z,0.00
2018-10-18T04:07:49.912Z,0.00
2018-10-18T04:08:49.902Z,0.00
2018-10-18T04:09:49.904Z,0.00
2018-10-18T04:10:49.877Z,0.00
2018-10-18T04:11:49.872Z,0.00
2018-10-18T04:12:49.906Z,0.00
2018-10-18T04:13:49.845Z,0.00
2018-10-18T04:14:49.834Z,0.00
2018-10-18T04:15:49.839Z,0.00
2018-10-18T04:16:49.813Z,0.00
2018-10-18T04:17:49.803Z,0.00
2018-10-18T04:18:49.793Z,0.00
2018-10-18T04:19:49.780Z,0.00
2018-10-18T04:20:49.771Z,0.00
2018-10-18T04:21:49.778Z,0.00
2018-10-18T04:22:49.740Z,0.00
2018-10-18T04:23:49.730Z,0.00
2018-10-18T04:24:49.718Z,0.00
2018-10-18T04:25:49.724Z,0.00
2018-10-18T04:26:49.699Z,0.00
2018-10-18T04:27:49.711Z,0.00
2018-10-18T04:28:49.681Z,0.00
2018-10-18T04:29:49.665Z,0.00
2018-10-18T04:30:49.654Z,0.00
2018-10-18T04:31:49.640Z,0.00
2018-10-18T04:32:49.630Z,0.00
2018-10-18T04:33:49.630Z,0.00
2018-10-18T04:34:49.633Z,0.00
2018-10-18T04:35:49.608Z,0.00
2018-10-18T04:36:49.591Z,0.00
2018-10-18T04:37:49.583Z,0.00
2018-10-18T04:38:49.571Z,0.00
2018-10-18T04:39:49.579Z,0.00
2018-10-18T04:40:49.551Z,0.00
2018-10-18T04:41:49.538Z,0.00
2018-10-18T04:42:49.526Z,0.00
2018-10-18T04:43:49.514Z,0.00
2018-10-18T04:44:49.515Z,0.00
2018-10-18T04:45:49.490Z,0.00
2018-10-18T04:46:49.477Z,0.00
2018-10-18T04:47:49.684Z,0.00
2018-10-18T04:48:49.551Z,0.00
2018-10-18T04:49:49.443Z,0.00
2018-10-18T04:50:49.448Z,0.00
2018-10-18T04:51:49.425Z,0.00
2018-10-18T04:52:49.413Z,0.00
2018-10-18T04:53:49.402Z,0.00
2018-10-18T04:54:49.386Z,0.00
2018-10-18T04:55:49.374Z,0.00
2018-10-18T04:56:49.417Z,0.00
2018-10-18T04:57:49.353Z,0.00
2018-10-18T04:58:49.350Z,0.00
2018-10-18T04:59:49.338Z,0.00
2018-10-18T05:00:49.323Z,0.00
2018-10-18T05:01:49.326Z,0.00
2018-10-18T05:02:49.365Z,0.00
2018-10-18T05:03:49.292Z,0.00
2018-10-18T05:04:49.313Z,0.00
2018-10-18T05:05:49.265Z,0.00
2018-10-18T05:06:49.257Z,0.00
2018-10-18T05:07:49.251Z,0.00
2018-10-18T05:08:49.256Z,0.00
2018-10-18T05:09:49.236Z,0.00
2018-10-18T05:10:49.220Z,0.00
2018-10-18T05:11:49.228Z,0.00
2018-10-18T05:12:49.268Z,0.00
2018-10-18T05:13:49.186Z,0.00
2018-10-18T05:14:49.198Z,0.00
2018-10-18T05:15:49.163Z,0.00
2018-10-18T05:16:49.163Z,0.00
2018-10-18T05:17:49.140Z,0.00
2018-10-18T05:18:49.135Z,0.00
2018-10-18T05:19:49.116Z,0.00
2018-10-18T05:20:49.133Z,0.00
2018-10-18T05:21:49.093Z,0.00
2018-10-18T05:22:49.089Z,0.00
2018-10-18T05:23:49.150Z,0.00
2018-10-18T05:24:49.069Z,0.00
2018-10-18T05:25:49.053Z,0.00
2018-10-18T05:26:49.053Z,0.00
2018-10-18T05:27:49.023Z,0.00
2018-10-18T05:28:49.018Z,0.00
2018-10-18T05:29:49.005Z,0.00
2018-10-18T05:30:48.995Z,0.00
2018-10-18T05:31:49.098Z,0.00
2018-10-18T05:32:48.990Z,0.00
2018-10-18T05:33:48.957Z,0.00
2018-10-18T05:34:48.947Z,0.00
2018-10-18T05:35:48.934Z,4.00
2018-10-18T05:36:48.925Z,0.00
2018-10-18T05:37:48.956Z,0.00
2018-10-18T05:38:48.939Z,0.00
2018-10-18T05:39:48.893Z,4.00
2018-10-18T05:40:48.880Z,0.00
2018-10-18T05:41:48.870Z,4.00
2018-10-18T05:42:48.860Z,0.00
2018-10-18T05:43:48.847Z,0.00
2018-10-18T05:44:48.903Z,0.00
2018-10-18T05:45:48.830Z,4.00
2018-10-18T05:46:48.928Z,8.00
2018-10-18T05:47:48.808Z,4.00
2018-10-18T05:48:48.805Z,8.00
2018-10-18T05:49:48.800Z,4.00
2018-10-18T05:50:48.818Z,4.00
2018-10-18T05:51:48.772Z,8.00
2018-10-18T05:52:48.808Z,12.00
2018-10-18T05:53:48.856Z,12.00
2018-10-18T05:54:48.741Z,12.00
2018-10-18T05:55:48.720Z,12.00
2018-10-18T05:56:48.731Z,16.00
2018-10-18T05:57:48.694Z,16.00
2018-10-18T05:58:48.716Z,16.00
2018-10-18T05:59:48.674Z,16.00
2018-10-18T06:00:48.669Z,20.00
2018-10-18T06:01:48.653Z,20.00
2018-10-18T06:02:48.661Z,24.00
2018-10-18T06:03:48.645Z,28.00
2018-10-18T06:04:48.615Z,24.00
2018-10-18T06:05:48.627Z,24.00
2018-10-18T06:06:48.592Z,28.00
2018-10-18T06:07:48.585Z,24.00
2018-10-18T06:08:48.590Z,24.00
2018-10-18T06:09:48.621Z,20.00
2018-10-18T06:10:48.552Z,16.00
2018-10-18T06:11:48.539Z,16.00
2018-10-18T06:12:48.534Z,16.00
2018-10-18T06:13:48.529Z,20.00
2018-10-18T06:14:48.532Z,20.00
2018-10-18T06:15:48.496Z,16.00
2018-10-18T06:16:48.486Z,16.00
2018-10-18T06:17:48.483Z,20.00
2018-10-18T06:18:48.462Z,20.00
2018-10-18T06:19:48.451Z,24.00
2018-10-18T06:20:48.469Z,20.00
2018-10-18T06:21:48.437Z,24.00
2018-10-18T06:22:48.485Z,24.00
2018-10-18T06:23:48.407Z,28.00
2018-10-18T06:24:48.395Z,32.00
2018-10-18T06:25:48.384Z,28.00
2018-10-18T06:26:48.391Z,28.00
2018-10-18T06:27:48.368Z,28.00
2018-10-18T06:28:48.357Z,36.00
2018-10-18T06:29:48.341Z,48.00
2018-10-18T06:30:48.330Z,56.00
2018-10-18T06:31:48.320Z,52.00
2018-10-18T06:32:48.340Z,48.00
2018-10-18T06:33:48.299Z,44.00
2018-10-18T06:34:48.298Z,56.00
2018-10-18T06:35:48.282Z,64.00
2018-10-18T06:36:48.268Z,72.00
2018-10-18T06:37:48.257Z,80.00
2018-10-18T06:38:48.261Z,84.00
2018-10-18T06:39:48.263Z,84.00
2018-10-18T06:40:48.236Z,84.00
2018-10-18T06:41:48.212Z,92.00
2018-10-18T06:42:48.198Z,104.00
2018-10-18T06:43:48.211Z,104.00
2018-10-18T06:44:48.179Z,96.00
2018-10-18T06:45:48.177Z,124.00
2018-10-18T06:46:48.221Z,180.00
2018-10-18T06:47:48.276Z,228.00
2018-10-18T06:48:48.162Z,244.00
2018-10-18T06:49:48.144Z,224.00
2018-10-18T06:50:48.113Z,164.00
2018-10-18T06:51:48.103Z,140.00
2018-10-18T06:52:48.092Z,176.00
2018-10-18T06:53:48.083Z,252.00
2018-10-18T06:54:48.068Z,320.00
2018-10-18T06:55:48.078Z,316.00
2018-10-18T06:56:48.051Z,340.00
2018-10-18T06:57:48.050Z,320.00
2018-10-18T06:58:48.057Z,324.00
2018-10-18T06:59:48.039Z,252.00
2018-10-18T07:00:48.011Z,152.00
2018-10-18T07:01:48.010Z,108.00
2018-10-18T07:02:47.983Z,96.00
2018-10-18T07:03:47.978Z,84.00
2018-10-18T07:04:47.957Z,84.00
2018-10-18T07:05:47.971Z,92.00
2018-10-18T07:06:47.979Z,96.00
2018-10-18T07:07:47.942Z,120.00
2018-10-18T07:08:47.950Z,124.00
2018-10-18T07:09:47.908Z,112.00
2018-10-18T07:10:47.963Z,120.00
2018-10-18T07:11:47.881Z,148.00
2018-10-18T07:12:47.874Z,176.00
2018-10-18T07:13:47.882Z,212.00
2018-10-18T07:14:47.853Z,272.00
2018-10-18T07:15:47.837Z,256.00
2018-10-18T07:16:47.833Z,228.00
2018-10-18T07:17:47.861Z,164.00
2018-10-18T07:18:47.813Z,216.00
2018-10-18T07:19:47.834Z,192.00
2018-10-18T07:20:47.793Z,188.00
2018-10-18T07:21:47.789Z,200.00
2018-10-18T07:22:47.761Z,200.00
2018-10-18T07:23:47.754Z,172.00
2018-10-18T07:24:47.749Z,204.00
2018-10-18T07:25:47.730Z,168.00
2018-10-18T07:26:47.719Z,152.00
2018-10-18T07:27:47.735Z,216.00
2018-10-18T07:28:47.704Z,268.00
2018-10-18T07:29:47.720Z,260.00
2018-10-18T07:30:47.694Z,240.00
2018-10-18T07:31:47.666Z,224.00
2018-10-18T07:32:47.649Z,152.00
2018-10-18T07:33:47.633Z,156.00
2018-10-18T07:34:47.623Z,144.00
2018-10-18T07:35:47.620Z,176.00
2018-10-18T07:36:47.633Z,216.00
2018-10-18T07:37:47.600Z,284.00
2018-10-18T07:38:47.582Z,328.00
2018-10-18T07:39:47.573Z,272.00
2018-10-18T07:40:47.562Z,160.00
2018-10-18T07:41:47.545Z,176.00
2018-10-18T07:42:47.565Z,212.00
2018-10-18T07:43:47.536Z,272.00
2018-10-18T07:44:47.512Z,296.00
2018-10-18T07:45:47.502Z,364.00
2018-10-18T07:46:47.511Z,324.00
2018-10-18T07:47:47.490Z,304.00
2018-10-18T07:48:47.491Z,300.00
2018-10-18T07:49:47.460Z,280.00
2018-10-18T07:50:47.449Z,260.00
2018-10-18T07:51:47.443Z,236.00
2018-10-18T07:52:47.456Z,256.00
2018-10-18T07:53:47.436Z,264.00
2018-10-18T07:54:47.408Z,272.00
2018-10-18T07:55:47.395Z,272.00
2018-10-18T07:56:47.383Z,276.00
2018-10-18T07:57:47.374Z,276.00
2018-10-18T07:58:47.361Z,276.00
2018-10-18T07:59:47.405Z,324.00
2018-10-18T08:00:47.525Z,336.00
2018-10-18T08:01:47.328Z,420.00
2018-10-18T08:02:47.318Z,416.00
2018-10-18T08:03:47.308Z,400.00
2018-10-18T08:04:47.298Z,356.00
2018-10-18T08:05:47.291Z,340.00
2018-10-18T08:06:47.293Z,340.00
2018-10-18T08:07:47.263Z,464.00
2018-10-18T08:08:47.254Z,472.00
2018-10-18T08:09:47.287Z,480.00
2018-10-18T08:10:47.268Z,396.00
2018-10-18T08:11:47.215Z,284.00
2018-10-18T08:12:47.219Z,272.00
2018-10-18T08:13:47.196Z,288.00
2018-10-18T08:14:47.188Z,284.00
2018-10-18T08:15:47.181Z,296.00
2018-10-18T08:16:47.206Z,352.00
2018-10-18T08:17:47.159Z,460.00
2018-10-18T08:18:47.155Z,376.00
2018-10-18T08:19:47.133Z,284.00
2018-10-18T08:20:47.130Z,228.00
2018-10-18T08:21:47.119Z,216.00
2018-10-18T08:22:47.096Z,200.00
2018-10-18T08:23:47.105Z,224.00
2018-10-18T08:24:47.084Z,228.00
2018-10-18T08:25:47.068Z,216.00
2018-10-18T08:26:47.051Z,208.00
2018-10-18T08:27:47.047Z,168.00
2018-10-18T08:28:47.034Z,132.00
2018-10-18T08:29:47.034Z,124.00
2018-10-18T08:30:47.014Z,128.00
2018-10-18T08:31:47.087Z,136.00
2018-10-18T08:32:46.982Z,144.00
2018-10-18T08:33:46.980Z,128.00
2018-10-18T08:34:46.985Z,116.00
2018-10-18T08:35:46.976Z,116.00
2018-10-18T08:36:46.938Z,124.00
2018-10-18T08:37:47.096Z,164.00
2018-10-18T08:38:46.917Z,196.00
2018-10-18T08:39:46.907Z,208.00
2018-10-18T08:40:46.898Z,288.00
2018-10-18T08:41:46.906Z,264.00
2018-10-18T08:42:46.875Z,232.00
2018-10-18T08:43:46.870Z,236.00
2018-10-18T08:44:46.856Z,236.00
2018-10-18T08:45:46.839Z,228.00
2018-10-18T08:46:46.833Z,248.00
2018-10-18T08:47:46.856Z,276.00
2018-10-18T08:48:46.809Z,360.00
2018-10-18T08:49:46.876Z,328.00
2018-10-18T08:50:46.789Z,364.00
2018-10-18T08:51:46.777Z,356.00
2018-10-18T08:52:46.785Z,352.00
2018-10-18T08:53:46.760Z,360.00
2018-10-18T08:54:46.756Z,392.00
2018-10-18T08:55:46.738Z,308.00
2018-10-18T08:56:46.730Z,264.00
2018-10-18T08:57:46.718Z,232.00
2018-10-18T08:58:46.740Z,260.00
2018-10-18T08:59:46.715Z,232.00
2018-10-18T09:00:46.690Z,172.00
2018-10-18T09:01:46.674Z,124.00
2018-10-18T09:02:46.658Z,112.00
2018-10-18T09:03:46.645Z,124.00
2018-10-18T09:04:46.653Z,140.00
2018-10-18T09:05:46.625Z,172.00
2018-10-18T09:06:46.627Z,204.00
2018-10-18T09:07:46.613Z,200.00
2018-10-18T09:08:46.588Z,220.00
2018-10-18T09:09:46.579Z,296.00
2018-10-18T09:10:46.585Z,344.00
2018-10-18T09:11:46.560Z,344.00
2018-10-18T09:12:46.551Z,388.00
2018-10-18T09:13:46.543Z,336.00
2018-10-18T09:14:46.531Z,364.00
2018-10-18T09:15:46.561Z,328.00
2018-10-18T09:16:46.528Z,332.00
2018-10-18T09:17:46.490Z,408.00
2018-10-18T09:18:46.475Z,456.00
2018-10-18T09:19:46.472Z,480.00
2018-10-18T09:20:46.452Z,436.00
2018-10-18T09:21:46.441Z,388.00
2018-10-18T09:22:46.448Z,348.00
2018-10-18T09:23:46.464Z,320.00
2018-10-18T09:24:46.414Z,332.00
2018-10-18T09:25:46.406Z,296.00
2018-10-18T09:26:46.387Z,280.00
2018-10-18T09:27:46.374Z,264.00
2018-10-18T09:28:46.389Z,224.00
2018-10-18T09:29:46.362Z,196.00
2018-10-18T09:30:46.341Z,156.00
2018-10-18T09:31:46.350Z,156.00
2018-10-18T09:32:46.333Z,176.00
2018-10-18T09:33:46.336Z,184.00
2018-10-18T09:34:46.325Z,176.00
2018-10-18T09:35:46.298Z,200.00
2018-10-18T09:36:46.283Z,196.00
2018-10-18T09:37:46.273Z,200.00
2018-10-18T09:38:46.256Z,188.00
2018-10-18T09:39:46.250Z,240.00
2018-10-18T09:40:46.254Z,292.00
2018-10-18T09:41:46.228Z,300.00
2018-10-18T09:42:46.233Z,340.00
2018-10-18T09:43:46.205Z,324.00
2018-10-18T09:44:46.233Z,316.00
2018-10-18T09:45:46.208Z,268.00
2018-10-18T09:46:46.195Z,264.00
2018-10-18T09:47:46.165Z,248.00
2018-10-18T09:48:46.153Z,284.00
2018-10-18T09:49:46.146Z,296.00
2018-10-18T09:50:46.134Z,288.00
2018-10-18T09:51:46.137Z,380.00
2018-10-18T09:52:46.189Z,484.00
2018-10-18T09:53:46.090Z,508.00
2018-10-18T09:54:46.094Z,540.00
2018-10-18T09:55:46.094Z,580.00
2018-10-18T09:56:46.059Z,600.00
2018-10-18T09:57:46.051Z,532.00
2018-10-18T09:58:46.053Z,544.00
2018-10-18T09:59:46.040Z,488.00
2018-10-18T10:00:46.012Z,508.00
2018-10-18T10:01:45.999Z,608.00
2018-10-18T10:02:45.990Z,716.00
2018-10-18T10:03:45.988Z,820.00
2018-10-18T10:04:45.993Z,876.00
2018-10-18T10:05:45.963Z,856.00
2018-10-18T10:06:45.943Z,892.00
2018-10-18T10:07:45.933Z,920.00
2018-10-18T10:08:45.926Z,960.00
2018-10-18T10:09:45.918Z,808.00
2018-10-18T10:10:45.919Z,728.00
2018-10-18T10:11:46.027Z,716.00
2018-10-18T10:12:45.887Z,748.00
2018-10-18T10:13:45.937Z,796.00
2018-10-18T10:14:54.471Z,780.00
2018-10-18T10:15:45.860Z,768.00
2018-10-18T10:16:45.864Z,716.00
2018-10-18T10:17:45.915Z,516.00
2018-10-18T10:18:45.811Z,372.00
2018-10-18T10:19:45.812Z,400.00
2018-10-18T10:20:45.801Z,332.00
2018-10-18T10:21:45.777Z,340.00
2018-10-18T10:22:45.793Z,404.00
2018-10-18T10:23:45.764Z,480.00
2018-10-18T10:24:45.882Z,468.00
2018-10-18T10:25:45.742Z,408.00
2018-10-18T10:26:45.758Z,408.00
2018-10-18T10:27:45.716Z,448.00
2018-10-18T10:28:45.744Z,476.00
2018-10-18T10:29:45.710Z,512.00
2018-10-18T10:30:45.679Z,460.00
2018-10-18T10:31:45.673Z,404.00
2018-10-18T10:32:45.745Z,376.00
2018-10-18T10:33:45.666Z,360.00
2018-10-18T10:34:45.657Z,360.00
2018-10-18T10:35:45.756Z,480.00
2018-10-18T10:36:45.613Z,516.00
2018-10-18T10:37:45.601Z,552.00
2018-10-18T10:38:45.623Z,536.00
2018-10-18T10:39:45.619Z,536.00
2018-10-18T10:40:45.574Z,564.00
2018-10-18T10:41:45.557Z,624.00
2018-10-18T10:42:45.615Z,608.00
2018-10-18T10:43:45.535Z,600.00
2018-10-18T10:44:45.593Z,612.00
2018-10-18T10:45:45.600Z,624.00
2018-10-18T10:46:45.541Z,616.00
2018-10-18T10:47:45.495Z,624.00
2018-10-18T10:48:45.495Z,588.00
2018-10-18T10:49:45.482Z,608.00
2018-10-18T10:50:45.491Z,588.00
2018-10-18T10:51:45.456Z,560.00
2018-10-18T10:52:45.464Z,544.00
2018-10-18T10:53:45.442Z,560.00
2018-10-18T10:54:45.443Z,612.00
2018-10-18T10:55:45.405Z,572.00
2018-10-18T10:56:45.394Z,600.00
2018-10-18T10:57:45.395Z,628.00
2018-10-18T10:58:45.425Z,600.00
2018-10-18T10:59:45.373Z,496.00
2018-10-18T11:00:45.362Z,588.00
2018-10-18T11:01:45.357Z,616.00
2018-10-18T11:02:45.325Z,632.00
2018-10-18T11:03:45.317Z,620.00
2018-10-18T11:04:45.325Z,572.00
2018-10-18T11:05:45.293Z,536.00
2018-10-18T11:06:45.316Z,500.00
2018-10-18T11:07:45.278Z,516.00
2018-10-18T11:08:45.259Z,476.00
2018-10-18T11:09:45.341Z,520.00
2018-10-18T11:10:45.245Z,548.00
2018-10-18T11:11:45.282Z,412.00
2018-10-18T11:12:45.233Z,428.00
2018-10-18T11:13:45.223Z,396.00
2018-10-18T11:14:45.250Z,336.00
2018-10-18T11:15:45.179Z,348.00
2018-10-18T11:16:45.169Z,348.00
2018-10-18T11:17:45.159Z,348.00
2018-10-18T11:18:45.166Z,420.00
2018-10-18T11:19:45.153Z,368.00
2018-10-18T11:20:45.129Z,492.00
2018-10-18T11:21:45.169Z,572.00
2018-10-18T11:22:45.102Z,716.00
2018-10-18T11:23:45.091Z,804.00
2018-10-18T11:24:45.183Z,736.00
2018-10-18T11:25:45.090Z,672.00
2018-10-18T11:26:45.065Z,588.00
2018-10-18T11:27:45.045Z,532.00
2018-10-18T11:28:45.034Z,520.00
2018-10-18T11:29:45.025Z,480.00
2018-10-18T11:30:45.034Z,424.00
2018-10-18T11:31:45.027Z,424.00
2018-10-18T11:32:44.991Z,424.00
2018-10-18T11:33:44.981Z,388.00
2018-10-18T11:34:44.969Z,368.00
2018-10-18T11:35:44.961Z,316.00
2018-10-18T11:36:44.959Z,348.00
2018-10-18T11:37:44.969Z,324.00
2018-10-18T11:38:44.923Z,352.00
2018-10-18T11:39:44.914Z,320.00
2018-10-18T11:40:44.903Z,320.00
2018-10-18T11:41:44.910Z,360.00
2018-10-18T11:42:44.963Z,384.00
2018-10-18T11:43:44.889Z,404.00
2018-10-18T11:44:44.858Z,416.00
2018-10-18T11:45:44.846Z,444.00
2018-10-18T11:46:44.836Z,440.00
2018-10-18T11:47:44.842Z,496.00
2018-10-18T11:48:44.830Z,516.00
2018-10-18T11:49:44.803Z,428.00
2018-10-18T11:50:44.797Z,400.00
2018-10-18T11:51:44.963Z,444.00
2018-10-18T11:52:44.768Z,524.00
2018-10-18T11:53:44.816Z,548.00
2018-10-18T11:54:44.765Z,556.00
2018-10-18T11:55:44.741Z,576.00
2018-10-18T11:56:44.731Z,476.00
2018-10-18T11:57:44.714Z,516.00
2018-10-18T11:58:44.704Z,536.00
2018-10-18T11:59:44.706Z,484.00
2018-10-18T12:00:44.697Z,452.00
2018-10-18T12:01:44.688Z,472.00
2018-10-18T12:02:44.713Z,492.00
2018-10-18T12:03:44.644Z,464.00
2018-10-18T12:04:44.635Z,396.00
2018-10-18T12:05:44.627Z,400.00
2018-10-18T12:06:44.627Z,412.00
2018-10-18T12:07:44.617Z,360.00
2018-10-18T12:08:44.595Z,316.00
2018-10-18T12:09:44.581Z,344.00
2018-10-18T12:10:44.567Z,344.00
2018-10-18T12:11:44.563Z,288.00
2018-10-18T12:12:44.563Z,296.00
2018-10-18T12:13:44.553Z,284.00
2018-10-18T12:14:44.523Z,272.00
2018-10-18T12:15:44.512Z,280.00
2018-10-18T12:16:44.499Z,344.00
2018-10-18T12:17:44.491Z,356.00
2018-10-18T12:18:44.510Z,364.00
2018-10-18T12:19:44.484Z,368.00
2018-10-18T12:20:44.459Z,344.00
2018-10-18T12:21:44.463Z,324.00
2018-10-18T12:22:44.434Z,308.00
2018-10-18T12:23:44.423Z,308.00
2018-10-18T12:24:44.435Z,284.00
2018-10-18T12:25:44.401Z,272.00
2018-10-18T12:26:44.433Z,288.00
2018-10-18T12:27:44.398Z,372.00
2018-10-18T12:28:44.368Z,336.00
2018-10-18T12:29:44.357Z,304.00
2018-10-18T12:30:44.363Z,276.00
2018-10-18T12:31:44.334Z,280.00
2018-10-18T12:32:44.324Z,320.00
2018-10-18T12:33:44.333Z,348.00
2018-10-18T12:34:44.301Z,376.00
2018-10-18T12:35:44.290Z,392.00
2018-10-18T12:36:44.310Z,364.00
2018-10-18T12:37:44.270Z,336.00
2018-10-18T12:38:44.255Z,360.00
2018-10-18T12:39:44.429Z,340.00
2018-10-18T12:40:44.292Z,372.00
2018-10-18T12:41:44.365Z,368.00
2018-10-18T12:42:44.226Z,324.00
2018-10-18T12:43:44.251Z,340.00
2018-10-18T12:44:44.224Z,304.00
2018-10-18T12:45:44.190Z,304.00
2018-10-18T12:46:44.171Z,308.00
2018-10-18T12:47:44.156Z,280.00
2018-10-18T12:48:44.204Z,268.00
2018-10-18T12:49:44.136Z,276.00
2018-10-18T12:50:44.151Z,260.00
2018-10-18T12:51:44.113Z,256.00
2018-10-18T12:52:44.103Z,252.00